sensor_id;sensor_type;location;lat;lon;timestamp;P1;durP1;ratioP1;P2;durP2;ratioP2
52320;SDS011;38261;54.090;13.382;2022-10-31T00:01:25;38.57;;;24.33;;
52320;SDS011;38261;54.090;13.382;2022-10-31T00:02:58;37.53;;;24.33;;
52320;SDS011;38261;54.090;13.382;2022-10-31T00:04:20;44.40;;;24.27;;
52320;SDS011;38261;54.090;13.382;2022-10-31T00:05:43;39.83;;;25.00;;
52320;SDS011;38261;54.090;13.382;2022-10-31T00:07:07;37.07;;;24.03;;
52320;SDS011;38261;54.090;13.382;2022-10-31T00:08:29;42.03;;;25.40;;
52320;SDS011;38261;54.090;13.382;2022-10-31T00:09:51;35.63;;;25.10;;
52320;SDS011;38261;54.090;13.382;2022-10-31T00:11:13;38.00;;;24.10;;
52320;SDS011;38261;54.090;13.382;2022-10-31T00:12:35;36.60;;;23.33;;
52320;SDS011;38261;54.090;13.382;2022-10-31T00:13:58;39.73;;;24.23;;
52320;SDS011;38261;54.090;13.382;2022-10-31T00:15:20;40.37;;;24.40;;
52320;SDS011;38261;54.090;13.382;2022-10-31T00:16:43;35.47;;;22.07;;
52320;SDS011;38261;54.090;13.382;2022-10-31T00:18:05;35.60;;;21.83;;
52320;SDS011;38261;54.090;13.382;2022-10-31T00:19:29;44.17;;;22.97;;
52320;SDS011;38261;54.090;13.382;2022-10-31T00:21:01;31.30;;;20.90;;
52320;SDS011;38261;54.090;13.382;2022-10-31T00:22:24;34.57;;;21.77;;
52320;SDS011;38261;54.090;13.382;2022-10-31T00:23:46;40.03;;;22.10;;
52320;SDS011;38261;54.090;13.382;2022-10-31T00:25:09;34.67;;;22.10;;
52320;SDS011;38261;54.090;13.382;2022-10-31T00:26:31;36.93;;;24.03;;
52320;SDS011;38261;54.090;13.382;2022-10-31T00:27:53;41.20;;;24.20;;
52320;SDS011;38261;54.090;13.382;2022-10-31T00:29:16;39.33;;;24.63;;
52320;SDS011;38261;54.090;13.382;2022-10-31T00:30:38;43.70;;;24.10;;
52320;SDS011;38261;54.090;13.382;2022-10-31T00:32:00;51.83;;;29.73;;
52320;SDS011;38261;54.090;13.382;2022-10-31T00:33:22;59.87;;;33.07;;
52320;SDS011;38261;54.090;13.382;2022-10-31T00:34:44;53.10;;;32.20;;
52320;SDS011;38261;54.090;13.382;2022-10-31T00:36:06;53.00;;;28.77;;
52320;SDS011;38261;54.090;13.382;2022-10-31T00:37:29;49.47;;;27.33;;
52320;SDS011;38261;54.090;13.382;2022-10-31T00:38:51;45.67;;;26.57;;
52320;SDS011;38261;54.090;13.382;2022-10-31T00:40:13;41.70;;;26.53;;
52320;SDS011;38261;54.090;13.382;2022-10-31T00:41:35;39.43;;;24.43;;
52320;SDS011;38261;54.090;13.382;2022-10-31T00:42:57;37.27;;;23.13;;
52320;SDS011;38261;54.090;13.382;2022-10-31T00:44:20;39.50;;;25.40;;
52320;SDS011;38261;54.090;13.382;2022-10-31T00:45:42;40.90;;;26.30;;
52320;SDS011;38261;54.090;13.382;2022-10-31T00:47:04;48.67;;;27.27;;
52320;SDS011;38261;54.090;13.382;2022-10-31T00:48:26;47.10;;;25.50;;
52320;SDS011;38261;54.090;13.382;2022-10-31T00:49:48;43.80;;;26.40;;
52320;SDS011;38261;54.090;13.382;2022-10-31T00:51:10;40.00;;;25.00;;
52320;SDS011;38261;54.090;13.382;2022-10-31T00:52:32;43.23;;;25.23;;
52320;SDS011;38261;54.090;13.382;2022-10-31T00:53:54;38.40;;;24.00;;
52320;SDS011;38261;54.090;13.382;2022-10-31T00:55:16;40.20;;;24.13;;
52320;SDS011;38261;54.090;13.382;2022-10-31T00:56:38;38.97;;;23.97;;
52320;SDS011;38261;54.090;13.382;2022-10-31T00:58:01;39.67;;;24.30;;
52320;SDS011;38261;54.090;13.382;2022-10-31T00:59:24;36.63;;;24.70;;
52320;SDS011;38261;54.090;13.382;2022-10-31T01:00:47;37.50;;;24.47;;
52320;SDS011;38261;54.090;13.382;2022-10-31T01:02:16;38.57;;;25.10;;
52320;SDS011;38261;54.090;13.382;2022-10-31T01:03:38;41.57;;;25.40;;
52320;SDS011;38261;54.090;13.382;2022-10-31T01:05:01;37.50;;;23.37;;
52320;SDS011;38261;54.090;13.382;2022-10-31T01:06:23;37.93;;;23.67;;
52320;SDS011;38261;54.090;13.382;2022-10-31T01:07:45;38.37;;;24.23;;
52320;SDS011;38261;54.090;13.382;2022-10-31T01:09:07;38.30;;;24.53;;
52320;SDS011;38261;54.090;13.382;2022-10-31T01:10:29;41.30;;;25.50;;
52320;SDS011;38261;54.090;13.382;2022-10-31T01:11:51;37.87;;;22.47;;
52320;SDS011;38261;54.090;13.382;2022-10-31T01:13:13;36.17;;;23.53;;
52320;SDS011;38261;54.090;13.382;2022-10-31T01:14:36;37.97;;;23.93;;
52320;SDS011;38261;54.090;13.382;2022-10-31T01:15:58;40.70;;;24.00;;
52320;SDS011;38261;54.090;13.382;2022-10-31T01:17:21;43.03;;;24.73;;
52320;SDS011;38261;54.090;13.382;2022-10-31T01:18:43;43.37;;;24.07;;
52320;SDS011;38261;54.090;13.382;2022-10-31T01:20:06;52.27;;;27.00;;
52320;SDS011;38261;54.090;13.382;2022-10-31T01:21:29;46.40;;;25.60;;
52320;SDS011;38261;54.090;13.382;2022-10-31T01:22:51;36.63;;;23.43;;
52320;SDS011;38261;54.090;13.382;2022-10-31T01:24:14;35.70;;;22.00;;
52320;SDS011;38261;54.090;13.382;2022-10-31T01:25:36;39.93;;;23.03;;
52320;SDS011;38261;54.090;13.382;2022-10-31T01:26:58;40.70;;;25.10;;
52320;SDS011;38261;54.090;13.382;2022-10-31T01:28:20;41.50;;;23.60;;
52320;SDS011;38261;54.090;13.382;2022-10-31T01:29:42;42.93;;;25.30;;
52320;SDS011;38261;54.090;13.382;2022-10-31T01:31:05;42.27;;;24.90;;
52320;SDS011;38261;54.090;13.382;2022-10-31T01:32:29;57.07;;;28.97;;
52320;SDS011;38261;54.090;13.382;2022-10-31T01:33:52;54.80;;;31.80;;
52320;SDS011;38261;54.090;13.382;2022-10-31T01:35:14;48.10;;;28.30;;
52320;SDS011;38261;54.090;13.382;2022-10-31T01:36:37;41.10;;;24.37;;
52320;SDS011;38261;54.090;13.382;2022-10-31T01:38:00;37.63;;;23.10;;
52320;SDS011;38261;54.090;13.382;2022-10-31T01:39:22;38.73;;;22.23;;
52320;SDS011;38261;54.090;13.382;2022-10-31T01:40:44;33.20;;;20.57;;
52320;SDS011;38261;54.090;13.382;2022-10-31T01:42:06;33.97;;;19.40;;
52320;SDS011;38261;54.090;13.382;2022-10-31T01:45:13;34.07;;;20.70;;
52320;SDS011;38261;54.090;13.382;2022-10-31T01:46:38;40.33;;;24.10;;
52320;SDS011;38261;54.090;13.382;2022-10-31T01:48:04;46.03;;;27.70;;
52320;SDS011;38261;54.090;13.382;2022-10-31T01:49:40;47.90;;;27.13;;
52320;SDS011;38261;54.090;13.382;2022-10-31T01:51:07;48.83;;;26.60;;
52320;SDS011;38261;54.090;13.382;2022-10-31T01:52:36;47.87;;;28.00;;
52320;SDS011;38261;54.090;13.382;2022-10-31T01:54:04;46.43;;;25.07;;
52320;SDS011;38261;54.090;13.382;2022-10-31T01:55:32;43.20;;;25.80;;
52320;SDS011;38261;54.090;13.382;2022-10-31T01:56:57;45.50;;;25.50;;
52320;SDS011;38261;54.090;13.382;2022-10-31T01:58:23;41.17;;;25.47;;
52320;SDS011;38261;54.090;13.382;2022-10-31T01:59:49;40.23;;;22.17;;
52320;SDS011;38261;54.090;13.382;2022-10-31T02:01:14;42.53;;;22.47;;
52320;SDS011;38261;54.090;13.382;2022-10-31T02:02:38;47.67;;;23.83;;
52320;SDS011;38261;54.090;13.382;2022-10-31T02:04:01;40.50;;;23.33;;
52320;SDS011;38261;54.090;13.382;2022-10-31T02:05:24;39.57;;;22.73;;
52320;SDS011;38261;54.090;13.382;2022-10-31T02:06:59;42.07;;;21.73;;
52320;SDS011;38261;54.090;13.382;2022-10-31T02:08:32;35.73;;;21.23;;
52320;SDS011;38261;54.090;13.382;2022-10-31T02:09:56;36.67;;;20.37;;
52320;SDS011;38261;54.090;13.382;2022-10-31T02:11:19;35.47;;;20.03;;
52320;SDS011;38261;54.090;13.382;2022-10-31T02:12:41;38.70;;;22.43;;
52320;SDS011;38261;54.090;13.382;2022-10-31T02:14:04;41.70;;;23.00;;
52320;SDS011;38261;54.090;13.382;2022-10-31T02:15:26;40.20;;;22.93;;
52320;SDS011;38261;54.090;13.382;2022-10-31T02:16:49;38.67;;;22.00;;
52320;SDS011;38261;54.090;13.382;2022-10-31T02:18:11;45.93;;;22.70;;
52320;SDS011;38261;54.090;13.382;2022-10-31T02:21:17;49.00;;;24.20;;
52320;SDS011;38261;54.090;13.382;2022-10-31T02:29:56;44.33;;;24.07;;
52320;SDS011;38261;54.090;13.382;2022-10-31T02:33:10;40.10;;;23.50;;
52320;SDS011;38261;54.090;13.382;2022-10-31T02:36:22;38.70;;;22.20;;
52320;SDS011;38261;54.090;13.382;2022-10-31T02:39:37;42.43;;;24.20;;
52320;SDS011;38261;54.090;13.382;2022-10-31T02:47:33;41.83;;;23.90;;
52320;SDS011;38261;54.090;13.382;2022-10-31T02:49:00;37.57;;;22.70;;
52320;SDS011;38261;54.090;13.382;2022-10-31T02:50:29;34.23;;;21.30;;
52320;SDS011;38261;54.090;13.382;2022-10-31T02:51:54;34.07;;;21.40;;
52320;SDS011;38261;54.090;13.382;2022-10-31T02:53:16;36.50;;;22.93;;
52320;SDS011;38261;54.090;13.382;2022-10-31T02:54:38;37.60;;;22.40;;
52320;SDS011;38261;54.090;13.382;2022-10-31T02:56:14;30.23;;;20.53;;
52320;SDS011;38261;54.090;13.382;2022-10-31T02:57:37;29.80;;;19.73;;
52320;SDS011;38261;54.090;13.382;2022-10-31T02:59:03;29.57;;;18.87;;
52320;SDS011;38261;54.090;13.382;2022-10-31T03:00:26;31.83;;;18.23;;
52320;SDS011;38261;54.090;13.382;2022-10-31T03:01:56;33.63;;;18.67;;
52320;SDS011;38261;54.090;13.382;2022-10-31T03:03:49;32.37;;;19.70;;
52320;SDS011;38261;54.090;13.382;2022-10-31T03:07:25;30.67;;;18.13;;
52320;SDS011;38261;54.090;13.382;2022-10-31T03:13:50;29.07;;;17.97;;
52320;SDS011;38261;54.090;13.382;2022-10-31T03:15:35;31.30;;;19.43;;
52320;SDS011;38261;54.090;13.382;2022-10-31T03:17:01;32.20;;;19.07;;
52320;SDS011;38261;54.090;13.382;2022-10-31T03:18:32;29.20;;;17.83;;
52320;SDS011;38261;54.090;13.382;2022-10-31T03:20:00;28.23;;;16.50;;
52320;SDS011;38261;54.090;13.382;2022-10-31T03:21:33;22.07;;;15.13;;
52320;SDS011;38261;54.090;13.382;2022-10-31T03:22:57;22.70;;;14.97;;
52320;SDS011;38261;54.090;13.382;2022-10-31T03:24:22;24.40;;;15.87;;
52320;SDS011;38261;54.090;13.382;2022-10-31T03:25:48;25.23;;;15.23;;
52320;SDS011;38261;54.090;13.382;2022-10-31T03:27:12;21.20;;;14.93;;
52320;SDS011;38261;54.090;13.382;2022-10-31T03:28:52;23.63;;;17.20;;
52320;SDS011;38261;54.090;13.382;2022-10-31T03:30:18;21.00;;;15.43;;
52320;SDS011;38261;54.090;13.382;2022-10-31T03:31:44;21.77;;;15.70;;
52320;SDS011;38261;54.090;13.382;2022-10-31T03:33:15;23.40;;;15.20;;
52320;SDS011;38261;54.090;13.382;2022-10-31T03:34:41;21.30;;;15.50;;
52320;SDS011;38261;54.090;13.382;2022-10-31T03:36:06;18.63;;;14.10;;
52320;SDS011;38261;54.090;13.382;2022-10-31T03:37:30;19.37;;;15.13;;
52320;SDS011;38261;54.090;13.382;2022-10-31T03:38:55;23.90;;;14.13;;
52320;SDS011;38261;54.090;13.382;2022-10-31T03:40:20;20.10;;;13.57;;
52320;SDS011;38261;54.090;13.382;2022-10-31T03:41:53;16.87;;;13.03;;
52320;SDS011;38261;54.090;13.382;2022-10-31T03:43:25;16.20;;;12.83;;
52320;SDS011;38261;54.090;13.382;2022-10-31T03:44:55;17.30;;;12.90;;
52320;SDS011;38261;54.090;13.382;2022-10-31T03:46:22;16.13;;;13.13;;
52320;SDS011;38261;54.090;13.382;2022-10-31T03:47:45;17.90;;;13.90;;
52320;SDS011;38261;54.090;13.382;2022-10-31T03:49:08;17.67;;;13.30;;
52320;SDS011;38261;54.090;13.382;2022-10-31T03:50:45;19.03;;;14.40;;
52320;SDS011;38261;54.090;13.382;2022-10-31T03:52:24;17.67;;;12.83;;
52320;SDS011;38261;54.090;13.382;2022-10-31T03:54:31;22.73;;;12.90;;
52320;SDS011;38261;54.090;13.382;2022-10-31T03:55:51;15.17;;;12.10;;
52320;SDS011;38261;54.090;13.382;2022-10-31T03:57:24;15.43;;;12.07;;
52320;SDS011;38261;54.090;13.382;2022-10-31T03:59:01;15.73;;;12.40;;
52320;SDS011;38261;54.090;13.382;2022-10-31T04:00:24;17.53;;;12.80;;
52320;SDS011;38261;54.090;13.382;2022-10-31T04:01:47;17.83;;;14.50;;
52320;SDS011;38261;54.090;13.382;2022-10-31T04:03:26;18.53;;;13.63;;
52320;SDS011;38261;54.090;13.382;2022-10-31T04:04:52;17.30;;;12.93;;
52320;SDS011;38261;54.090;13.382;2022-10-31T04:06:14;17.63;;;13.50;;
52320;SDS011;38261;54.090;13.382;2022-10-31T04:07:40;17.40;;;12.30;;
52320;SDS011;38261;54.090;13.382;2022-10-31T04:09:07;18.13;;;12.77;;
52320;SDS011;38261;54.090;13.382;2022-10-31T04:10:30;19.10;;;14.03;;
52320;SDS011;38261;54.090;13.382;2022-10-31T04:11:55;16.33;;;13.37;;
52320;SDS011;38261;54.090;13.382;2022-10-31T04:13:21;17.40;;;12.73;;
52320;SDS011;38261;54.090;13.382;2022-10-31T04:14:48;17.27;;;13.33;;
52320;SDS011;38261;54.090;13.382;2022-10-31T04:16:12;14.60;;;12.60;;
52320;SDS011;38261;54.090;13.382;2022-10-31T04:17:39;20.77;;;13.77;;
52320;SDS011;38261;54.090;13.382;2022-10-31T04:19:03;19.17;;;13.60;;
52320;SDS011;38261;54.090;13.382;2022-10-31T04:20:30;18.80;;;14.10;;
52320;SDS011;38261;54.090;13.382;2022-10-31T04:21:54;16.50;;;13.40;;
52320;SDS011;38261;54.090;13.382;2022-10-31T04:23:18;18.33;;;14.10;;
52320;SDS011;38261;54.090;13.382;2022-10-31T04:24:45;15.00;;;11.90;;
52320;SDS011;38261;54.090;13.382;2022-10-31T04:26:08;19.97;;;13.33;;
52320;SDS011;38261;54.090;13.382;2022-10-31T04:27:33;17.00;;;13.60;;
52320;SDS011;38261;54.090;13.382;2022-10-31T04:28:55;16.73;;;12.80;;
52320;SDS011;38261;54.090;13.382;2022-10-31T04:30:17;17.10;;;13.00;;
52320;SDS011;38261;54.090;13.382;2022-10-31T04:31:39;17.37;;;13.47;;
52320;SDS011;38261;54.090;13.382;2022-10-31T04:33:01;15.80;;;12.50;;
52320;SDS011;38261;54.090;13.382;2022-10-31T04:34:24;17.07;;;13.20;;
52320;SDS011;38261;54.090;13.382;2022-10-31T04:35:46;17.50;;;11.87;;
52320;SDS011;38261;54.090;13.382;2022-10-31T04:37:08;15.87;;;12.00;;
52320;SDS011;38261;54.090;13.382;2022-10-31T04:38:30;19.30;;;13.60;;
52320;SDS011;38261;54.090;13.382;2022-10-31T04:39:52;14.57;;;11.83;;
52320;SDS011;38261;54.090;13.382;2022-10-31T04:41:14;14.43;;;12.03;;
52320;SDS011;38261;54.090;13.382;2022-10-31T04:42:36;16.73;;;12.17;;
52320;SDS011;38261;54.090;13.382;2022-10-31T04:43:59;15.83;;;11.50;;
52320;SDS011;38261;54.090;13.382;2022-10-31T04:45:21;16.03;;;12.43;;
52320;SDS011;38261;54.090;13.382;2022-10-31T04:46:43;21.23;;;13.67;;
52320;SDS011;38261;54.090;13.382;2022-10-31T04:48:05;18.40;;;12.40;;
52320;SDS011;38261;54.090;13.382;2022-10-31T04:49:27;19.00;;;13.50;;
52320;SDS011;38261;54.090;13.382;2022-10-31T04:50:49;19.30;;;13.97;;
52320;SDS011;38261;54.090;13.382;2022-10-31T04:52:12;21.23;;;14.00;;
52320;SDS011;38261;54.090;13.382;2022-10-31T04:53:34;20.50;;;14.80;;
52320;SDS011;38261;54.090;13.382;2022-10-31T04:54:56;17.07;;;12.40;;
52320;SDS011;38261;54.090;13.382;2022-10-31T04:56:18;19.00;;;13.23;;
52320;SDS011;38261;54.090;13.382;2022-10-31T04:57:41;19.10;;;13.20;;
52320;SDS011;38261;54.090;13.382;2022-10-31T04:59:04;21.33;;;15.23;;
52320;SDS011;38261;54.090;13.382;2022-10-31T05:00:27;17.23;;;12.57;;
52320;SDS011;38261;54.090;13.382;2022-10-31T05:01:49;27.63;;;13.90;;
52320;SDS011;38261;54.090;13.382;2022-10-31T05:03:11;18.93;;;13.30;;
52320;SDS011;38261;54.090;13.382;2022-10-31T05:04:33;26.33;;;13.20;;
52320;SDS011;38261;54.090;13.382;2022-10-31T05:05:55;15.80;;;12.47;;
52320;SDS011;38261;54.090;13.382;2022-10-31T05:07:17;17.87;;;13.30;;
52320;SDS011;38261;54.090;13.382;2022-10-31T05:08:39;25.53;;;15.13;;
52320;SDS011;38261;54.090;13.382;2022-10-31T05:10:02;18.93;;;14.07;;
52320;SDS011;38261;54.090;13.382;2022-10-31T05:11:24;19.40;;;13.20;;
52320;SDS011;38261;54.090;13.382;2022-10-31T05:12:53;20.43;;;14.80;;
52320;SDS011;38261;54.090;13.382;2022-10-31T05:14:20;14.83;;;12.00;;
52320;SDS011;38261;54.090;13.382;2022-10-31T05:15:42;17.17;;;13.20;;
52320;SDS011;38261;54.090;13.382;2022-10-31T05:17:04;16.47;;;12.87;;
52320;SDS011;38261;54.090;13.382;2022-10-31T05:18:26;18.17;;;14.33;;
52320;SDS011;38261;54.090;13.382;2022-10-31T05:19:48;16.80;;;13.77;;
52320;SDS011;38261;54.090;13.382;2022-10-31T05:21:10;15.77;;;12.33;;
52320;SDS011;38261;54.090;13.382;2022-10-31T05:22:33;20.33;;;13.50;;
52320;SDS011;38261;54.090;13.382;2022-10-31T05:23:55;15.83;;;13.03;;
52320;SDS011;38261;54.090;13.382;2022-10-31T05:25:18;17.30;;;12.27;;
52320;SDS011;38261;54.090;13.382;2022-10-31T05:26:41;18.83;;;13.07;;
52320;SDS011;38261;54.090;13.382;2022-10-31T05:28:03;18.37;;;12.60;;
52320;SDS011;38261;54.090;13.382;2022-10-31T05:29:25;18.03;;;13.40;;
52320;SDS011;38261;54.090;13.382;2022-10-31T05:30:48;18.57;;;14.20;;
52320;SDS011;38261;54.090;13.382;2022-10-31T05:32:11;17.00;;;13.73;;
52320;SDS011;38261;54.090;13.382;2022-10-31T05:33:33;16.60;;;13.30;;
52320;SDS011;38261;54.090;13.382;2022-10-31T05:34:55;19.00;;;12.23;;
52320;SDS011;38261;54.090;13.382;2022-10-31T05:36:17;21.93;;;12.10;;
52320;SDS011;38261;54.090;13.382;2022-10-31T05:37:39;19.40;;;12.47;;
52320;SDS011;38261;54.090;13.382;2022-10-31T05:39:01;17.03;;;12.60;;
52320;SDS011;38261;54.090;13.382;2022-10-31T05:40:23;19.33;;;12.20;;
52320;SDS011;38261;54.090;13.382;2022-10-31T05:41:46;16.30;;;13.30;;
52320;SDS011;38261;54.090;13.382;2022-10-31T05:43:08;15.97;;;12.43;;
52320;SDS011;38261;54.090;13.382;2022-10-31T05:44:30;18.27;;;13.07;;
52320;SDS011;38261;54.090;13.382;2022-10-31T05:45:53;17.47;;;12.87;;
52320;SDS011;38261;54.090;13.382;2022-10-31T05:47:15;15.43;;;11.60;;
52320;SDS011;38261;54.090;13.382;2022-10-31T05:48:37;14.40;;;11.33;;
52320;SDS011;38261;54.090;13.382;2022-10-31T05:49:59;15.60;;;11.80;;
52320;SDS011;38261;54.090;13.382;2022-10-31T05:51:21;14.07;;;11.23;;
52320;SDS011;38261;54.090;13.382;2022-10-31T05:52:43;15.70;;;11.83;;
52320;SDS011;38261;54.090;13.382;2022-10-31T05:54:06;15.70;;;12.10;;
52320;SDS011;38261;54.090;13.382;2022-10-31T05:55:33;16.03;;;12.43;;
52320;SDS011;38261;54.090;13.382;2022-10-31T05:56:55;19.47;;;13.10;;
52320;SDS011;38261;54.090;13.382;2022-10-31T05:58:17;16.40;;;13.47;;
52320;SDS011;38261;54.090;13.382;2022-10-31T05:59:39;15.70;;;12.90;;
52320;SDS011;38261;54.090;13.382;2022-10-31T06:01:02;20.07;;;12.93;;
52320;SDS011;38261;54.090;13.382;2022-10-31T06:02:24;17.53;;;13.03;;
52320;SDS011;38261;54.090;13.382;2022-10-31T06:03:46;17.90;;;12.63;;
52320;SDS011;38261;54.090;13.382;2022-10-31T06:05:08;18.13;;;12.37;;
52320;SDS011;38261;54.090;13.382;2022-10-31T06:06:31;16.03;;;11.80;;
52320;SDS011;38261;54.090;13.382;2022-10-31T06:07:53;16.90;;;12.80;;
52320;SDS011;38261;54.090;13.382;2022-10-31T06:09:15;15.60;;;12.70;;
52320;SDS011;38261;54.090;13.382;2022-10-31T06:10:37;18.00;;;12.37;;
52320;SDS011;38261;54.090;13.382;2022-10-31T06:11:59;16.27;;;12.43;;
52320;SDS011;38261;54.090;13.382;2022-10-31T06:13:21;17.13;;;12.57;;
52320;SDS011;38261;54.090;13.382;2022-10-31T06:14:43;16.80;;;11.70;;
52320;SDS011;38261;54.090;13.382;2022-10-31T06:16:05;16.10;;;12.33;;
52320;SDS011;38261;54.090;13.382;2022-10-31T06:17:28;15.43;;;11.53;;
52320;SDS011;38261;54.090;13.382;2022-10-31T06:18:50;20.93;;;12.90;;
52320;SDS011;38261;54.090;13.382;2022-10-31T06:20:12;15.80;;;12.00;;
52320;SDS011;38261;54.090;13.382;2022-10-31T06:21:34;17.80;;;12.40;;
52320;SDS011;38261;54.090;13.382;2022-10-31T06:22:56;17.47;;;12.87;;
52320;SDS011;38261;54.090;13.382;2022-10-31T06:24:20;18.87;;;13.57;;
52320;SDS011;38261;54.090;13.382;2022-10-31T06:25:42;14.60;;;12.30;;
52320;SDS011;38261;54.090;13.382;2022-10-31T06:27:04;15.17;;;12.07;;
52320;SDS011;38261;54.090;13.382;2022-10-31T06:28:26;12.27;;;10.80;;
52320;SDS011;38261;54.090;13.382;2022-10-31T06:29:48;15.63;;;11.97;;
52320;SDS011;38261;54.090;13.382;2022-10-31T06:31:11;13.37;;;11.40;;
52320;SDS011;38261;54.090;13.382;2022-10-31T06:32:33;18.60;;;12.80;;
52320;SDS011;38261;54.090;13.382;2022-10-31T06:33:55;16.90;;;13.80;;
52320;SDS011;38261;54.090;13.382;2022-10-31T06:35:18;22.13;;;12.17;;
52320;SDS011;38261;54.090;13.382;2022-10-31T06:36:40;15.77;;;12.60;;
52320;SDS011;38261;54.090;13.382;2022-10-31T06:38:02;18.50;;;11.80;;
52320;SDS011;38261;54.090;13.382;2022-10-31T06:39:24;18.27;;;12.10;;
52320;SDS011;38261;54.090;13.382;2022-10-31T06:40:47;20.50;;;13.23;;
52320;SDS011;38261;54.090;13.382;2022-10-31T06:42:09;18.83;;;13.77;;
52320;SDS011;38261;54.090;13.382;2022-10-31T06:43:31;17.57;;;13.30;;
52320;SDS011;38261;54.090;13.382;2022-10-31T06:44:54;15.60;;;12.30;;
52320;SDS011;38261;54.090;13.382;2022-10-31T06:46:16;24.60;;;13.80;;
52320;SDS011;38261;54.090;13.382;2022-10-31T06:47:38;22.23;;;14.07;;
52320;SDS011;38261;54.090;13.382;2022-10-31T06:49:20;21.53;;;12.67;;
52320;SDS011;38261;54.090;13.382;2022-10-31T06:50:42;16.80;;;12.47;;
52320;SDS011;38261;54.090;13.382;2022-10-31T06:52:04;18.83;;;13.17;;
52320;SDS011;38261;54.090;13.382;2022-10-31T06:53:27;17.93;;;11.97;;
52320;SDS011;38261;54.090;13.382;2022-10-31T06:54:51;17.73;;;12.13;;
52320;SDS011;38261;54.090;13.382;2022-10-31T06:56:13;20.93;;;13.53;;
52320;SDS011;38261;54.090;13.382;2022-10-31T06:57:35;20.97;;;12.53;;
52320;SDS011;38261;54.090;13.382;2022-10-31T06:58:57;20.93;;;12.00;;
52320;SDS011;38261;54.090;13.382;2022-10-31T07:00:19;16.30;;;12.17;;
52320;SDS011;38261;54.090;13.382;2022-10-31T07:01:42;20.63;;;12.43;;
52320;SDS011;38261;54.090;13.382;2022-10-31T07:03:05;18.93;;;13.20;;
52320;SDS011;38261;54.090;13.382;2022-10-31T07:04:30;20.73;;;12.40;;
52320;SDS011;38261;54.090;13.382;2022-10-31T07:05:54;22.00;;;13.10;;
52320;SDS011;38261;54.090;13.382;2022-10-31T07:07:18;19.77;;;12.67;;
52320;SDS011;38261;54.090;13.382;2022-10-31T07:08:42;20.07;;;13.07;;
52320;SDS011;38261;54.090;13.382;2022-10-31T07:10:04;19.40;;;12.70;;
52320;SDS011;38261;54.090;13.382;2022-10-31T07:11:26;14.20;;;11.77;;
52320;SDS011;38261;54.090;13.382;2022-10-31T07:12:53;16.47;;;11.87;;
52320;SDS011;38261;54.090;13.382;2022-10-31T07:14:19;14.10;;;11.63;;
52320;SDS011;38261;54.090;13.382;2022-10-31T07:15:42;17.83;;;12.63;;
52320;SDS011;38261;54.090;13.382;2022-10-31T07:17:05;18.60;;;13.20;;
52320;SDS011;38261;54.090;13.382;2022-10-31T07:18:27;21.90;;;13.20;;
52320;SDS011;38261;54.090;13.382;2022-10-31T07:19:49;18.67;;;12.57;;
52320;SDS011;38261;54.090;13.382;2022-10-31T07:21:11;22.63;;;13.03;;
52320;SDS011;38261;54.090;13.382;2022-10-31T07:22:34;18.97;;;13.20;;
52320;SDS011;38261;54.090;13.382;2022-10-31T07:23:57;16.30;;;12.83;;
52320;SDS011;38261;54.090;13.382;2022-10-31T07:25:19;19.53;;;13.60;;
52320;SDS011;38261;54.090;13.382;2022-10-31T07:26:42;19.30;;;12.97;;
52320;SDS011;38261;54.090;13.382;2022-10-31T07:28:04;19.30;;;12.23;;
52320;SDS011;38261;54.090;13.382;2022-10-31T07:29:26;20.40;;;13.40;;
52320;SDS011;38261;54.090;13.382;2022-10-31T07:30:51;22.47;;;13.67;;
52320;SDS011;38261;54.090;13.382;2022-10-31T07:32:14;19.60;;;13.17;;
52320;SDS011;38261;54.090;13.382;2022-10-31T07:33:36;23.07;;;14.30;;
52320;SDS011;38261;54.090;13.382;2022-10-31T07:34:59;22.03;;;13.03;;
52320;SDS011;38261;54.090;13.382;2022-10-31T07:36:21;25.70;;;14.27;;
52320;SDS011;38261;54.090;13.382;2022-10-31T07:37:43;23.00;;;12.90;;
52320;SDS011;38261;54.090;13.382;2022-10-31T07:39:05;26.40;;;14.03;;
52320;SDS011;38261;54.090;13.382;2022-10-31T07:40:27;19.30;;;12.83;;
52320;SDS011;38261;54.090;13.382;2022-10-31T07:41:49;24.57;;;13.10;;
52320;SDS011;38261;54.090;13.382;2022-10-31T07:43:11;22.53;;;13.90;;
52320;SDS011;38261;54.090;13.382;2022-10-31T07:44:35;22.90;;;14.50;;
52320;SDS011;38261;54.090;13.382;2022-10-31T07:45:57;25.80;;;13.17;;
52320;SDS011;38261;54.090;13.382;2022-10-31T07:47:19;21.33;;;13.40;;
52320;SDS011;38261;54.090;13.382;2022-10-31T07:48:41;22.63;;;13.20;;
52320;SDS011;38261;54.090;13.382;2022-10-31T07:50:03;24.23;;;14.00;;
52320;SDS011;38261;54.090;13.382;2022-10-31T07:51:26;19.33;;;12.97;;
52320;SDS011;38261;54.090;13.382;2022-10-31T07:52:48;26.73;;;13.83;;
52320;SDS011;38261;54.090;13.382;2022-10-31T07:54:18;23.63;;;12.70;;
52320;SDS011;38261;54.090;13.382;2022-10-31T07:55:40;23.67;;;13.90;;
52320;SDS011;38261;54.090;13.382;2022-10-31T07:57:03;25.13;;;12.70;;
52320;SDS011;38261;54.090;13.382;2022-10-31T07:58:25;26.53;;;14.57;;
52320;SDS011;38261;54.090;13.382;2022-10-31T07:59:47;30.33;;;13.87;;
52320;SDS011;38261;54.090;13.382;2022-10-31T08:01:09;24.73;;;13.00;;
52320;SDS011;38261;54.090;13.382;2022-10-31T08:02:34;26.90;;;13.77;;
52320;SDS011;38261;54.090;13.382;2022-10-31T08:03:56;25.73;;;14.10;;
52320;SDS011;38261;54.090;13.382;2022-10-31T08:05:18;25.50;;;13.27;;
52320;SDS011;38261;54.090;13.382;2022-10-31T08:06:40;23.97;;;13.80;;
52320;SDS011;38261;54.090;13.382;2022-10-31T08:08:05;23.53;;;14.23;;
52320;SDS011;38261;54.090;13.382;2022-10-31T08:09:28;26.83;;;15.60;;
52320;SDS011;38261;54.090;13.382;2022-10-31T08:10:50;28.97;;;14.87;;
52320;SDS011;38261;54.090;13.382;2022-10-31T08:12:12;31.30;;;14.60;;
52320;SDS011;38261;54.090;13.382;2022-10-31T08:13:34;33.40;;;16.20;;
52320;SDS011;38261;54.090;13.382;2022-10-31T08:14:56;28.20;;;15.00;;
52320;SDS011;38261;54.090;13.382;2022-10-31T08:16:18;27.53;;;14.00;;
52320;SDS011;38261;54.090;13.382;2022-10-31T08:17:40;23.70;;;14.23;;
52320;SDS011;38261;54.090;13.382;2022-10-31T08:19:02;29.67;;;15.17;;
52320;SDS011;38261;54.090;13.382;2022-10-31T08:20:24;33.20;;;15.47;;
52320;SDS011;38261;54.090;13.382;2022-10-31T08:21:46;27.33;;;15.40;;
52320;SDS011;38261;54.090;13.382;2022-10-31T08:23:12;30.37;;;14.33;;
52320;SDS011;38261;54.090;13.382;2022-10-31T08:24:35;30.23;;;15.00;;
52320;SDS011;38261;54.090;13.382;2022-10-31T08:25:57;33.27;;;15.77;;
52320;SDS011;38261;54.090;13.382;2022-10-31T08:27:19;42.30;;;17.57;;
52320;SDS011;38261;54.090;13.382;2022-10-31T08:28:41;30.53;;;15.70;;
52320;SDS011;38261;54.090;13.382;2022-10-31T08:30:03;34.97;;;14.73;;
52320;SDS011;38261;54.090;13.382;2022-10-31T08:31:26;30.70;;;14.80;;
52320;SDS011;38261;54.090;13.382;2022-10-31T08:34:40;32.77;;;14.20;;
52320;SDS011;38261;54.090;13.382;2022-10-31T08:36:03;28.23;;;14.20;;